sensor_id;sensor_type;location;lat;lon;timestamp;P1;durP1;ratioP1;P2;durP2;ratioP2
12910;SDS011;6523;49.758;6.120;2024-03-17T00:00:19;7.93;;;6.00;;
12910;SDS011;6523;49.758;6.120;2024-03-17T00:02:45;6.57;;;5.83;;
12910;SDS011;6523;49.758;6.120;2024-03-17T00:05:12;9.10;;;6.73;;
12910;SDS011;6523;49.758;6.120;2024-03-17T00:07:38;8.53;;;6.53;;
12910;SDS011;6523;49.758;6.120;2024-03-17T00:10:04;6.60;;;5.60;;
12910;SDS011;6523;49.758;6.120;2024-03-17T00:12:32;6.90;;;5.40;;
12910;SDS011;6523;49.758;6.120;2024-03-17T00:14:58;5.70;;;5.10;;
12910;SDS011;6523;49.758;6.120;2024-03-17T00:17:24;6.37;;;5.63;;
12910;SDS011;6523;49.758;6.120;2024-03-17T00:19:50;6.67;;;5.40;;
12910;SDS011;6523;49.758;6.120;2024-03-17T00:22:15;7.77;;;5.90;;
12910;SDS011;6523;49.758;6.120;2024-03-17T00:24:42;7.27;;;5.30;;
12910;SDS011;6523;49.758;6.120;2024-03-17T00:27:08;5.83;;;5.23;;
12910;SDS011;6523;49.758;6.120;2024-03-17T00:29:34;4.67;;;3.97;;
12910;SDS011;6523;49.758;6.120;2024-03-17T00:32:00;4.63;;;3.70;;
12910;SDS011;6523;49.758;6.120;2024-03-17T00:34:25;4.50;;;4.10;;
12910;SDS011;6523;49.758;6.120;2024-03-17T00:36:51;4.27;;;3.67;;
12910;SDS011;6523;49.758;6.120;2024-03-17T00:39:17;4.27;;;3.87;;
12910;SDS011;6523;49.758;6.120;2024-03-17T00:41:43;4.70;;;4.00;;
12910;SDS011;6523;49.758;6.120;2024-03-17T00:44:09;4.67;;;3.80;;
12910;SDS011;6523;49.758;6.120;2024-03-17T00:46:35;4.43;;;4.03;;
12910;SDS011;6523;49.758;6.120;2024-03-17T00:49:00;4.90;;;4.33;;
12910;SDS011;6523;49.758;6.120;2024-03-17T00:51:26;5.90;;;4.43;;
12910;SDS011;6523;49.758;6.120;2024-03-17T00:53:52;4.97;;;4.40;;
12910;SDS011;6523;49.758;6.120;2024-03-17T00:56:17;5.10;;;4.60;;
12910;SDS011;6523;49.758;6.120;2024-03-17T00:58:43;6.63;;;5.27;;
12910;SDS011;6523;49.758;6.120;2024-03-17T01:01:10;6.83;;;5.57;;
12910;SDS011;6523;49.758;6.120;2024-03-17T01:03:36;7.03;;;5.57;;
12910;SDS011;6523;49.758;6.120;2024-03-17T01:06:04;7.17;;;5.57;;
12910;SDS011;6523;49.758;6.120;2024-03-17T01:08:30;6.93;;;5.20;;
12910;SDS011;6523;49.758;6.120;2024-03-17T01:10:56;8.33;;;5.67;;
12910;SDS011;6523;49.758;6.120;2024-03-17T01:13:23;7.20;;;5.37;;
12910;SDS011;6523;49.758;6.120;2024-03-17T01:15:52;6.50;;;5.80;;
12910;SDS011;6523;49.758;6.120;2024-03-17T01:18:18;6.30;;;5.70;;
12910;SDS011;6523;49.758;6.120;2024-03-17T01:20:44;6.57;;;5.63;;
12910;SDS011;6523;49.758;6.120;2024-03-17T01:23:10;6.57;;;5.83;;
12910;SDS011;6523;49.758;6.120;2024-03-17T01:25:35;6.77;;;6.17;;
12910;SDS011;6523;49.758;6.120;2024-03-17T01:28:02;5.63;;;5.07;;
12910;SDS011;6523;49.758;6.120;2024-03-17T01:30:29;5.70;;;5.20;;
12910;SDS011;6523;49.758;6.120;2024-03-17T01:32:55;5.77;;;4.93;;
12910;SDS011;6523;49.758;6.120;2024-03-17T01:35:20;5.67;;;5.07;;
12910;SDS011;6523;49.758;6.120;2024-03-17T01:37:47;6.50;;;5.03;;
12910;SDS011;6523;49.758;6.120;2024-03-17T01:40:13;5.00;;;4.40;;
12910;SDS011;6523;49.758;6.120;2024-03-17T01:42:40;6.87;;;5.07;;
12910;SDS011;6523;49.758;6.120;2024-03-17T01:47:54;4.30;;;3.90;;
12910;SDS011;6523;49.758;6.120;2024-03-17T01:50:28;4.40;;;3.93;;
12910;SDS011;6523;49.758;6.120;2024-03-17T01:53:00;5.17;;;4.03;;
12910;SDS011;6523;49.758;6.120;2024-03-17T01:55:29;6.00;;;4.77;;
12910;SDS011;6523;49.758;6.120;2024-03-17T01:57:56;6.10;;;4.83;;
12910;SDS011;6523;49.758;6.120;2024-03-17T02:00:23;5.97;;;5.37;;
12910;SDS011;6523;49.758;6.120;2024-03-17T02:02:48;6.50;;;5.70;;
12910;SDS011;6523;49.758;6.120;2024-03-17T02:05:14;8.83;;;6.23;;
12910;SDS011;6523;49.758;6.120;2024-03-17T02:07:40;6.33;;;5.67;;
12910;SDS011;6523;49.758;6.120;2024-03-17T02:10:06;6.73;;;5.80;;
12910;SDS011;6523;49.758;6.120;2024-03-17T02:12:33;6.67;;;5.57;;
12910;SDS011;6523;49.758;6.120;2024-03-17T02:15:00;6.23;;;5.53;;
12910;SDS011;6523;49.758;6.120;2024-03-17T02:17:26;6.23;;;4.87;;
12910;SDS011;6523;49.758;6.120;2024-03-17T02:19:55;6.50;;;5.10;;
12910;SDS011;6523;49.758;6.120;2024-03-17T02:22:20;6.20;;;5.57;;
12910;SDS011;6523;49.758;6.120;2024-03-17T02:24:46;5.50;;;4.93;;
12910;SDS011;6523;49.758;6.120;2024-03-17T02:27:12;6.70;;;5.13;;
12910;SDS011;6523;49.758;6.120;2024-03-17T02:29:38;9.70;;;5.60;;
12910;SDS011;6523;49.758;6.120;2024-03-17T02:32:04;5.77;;;5.27;;
12910;SDS011;6523;49.758;6.120;2024-03-17T02:34:35;8.30;;;5.63;;
12910;SDS011;6523;49.758;6.120;2024-03-17T02:37:02;7.00;;;5.50;;
12910;SDS011;6523;49.758;6.120;2024-03-17T02:39:29;5.10;;;4.60;;
12910;SDS011;6523;49.758;6.120;2024-03-17T02:41:59;5.33;;;4.43;;
12910;SDS011;6523;49.758;6.120;2024-03-17T02:44:29;5.93;;;5.03;;
12910;SDS011;6523;49.758;6.120;2024-03-17T02:46:56;6.50;;;5.03;;
12910;SDS011;6523;49.758;6.120;2024-03-17T02:49:22;5.53;;;4.73;;
12910;SDS011;6523;49.758;6.120;2024-03-17T02:51:49;4.93;;;4.53;;
12910;SDS011;6523;49.758;6.120;2024-03-17T02:54:14;5.60;;;5.10;;
12910;SDS011;6523;49.758;6.120;2024-03-17T02:56:40;5.70;;;5.00;;
12910;SDS011;6523;49.758;6.120;2024-03-17T02:59:07;6.07;;;5.30;;
12910;SDS011;6523;49.758;6.120;2024-03-17T03:01:32;6.57;;;5.47;;
12910;SDS011;6523;49.758;6.120;2024-03-17T03:03:58;6.33;;;5.57;;
12910;SDS011;6523;49.758;6.120;2024-03-17T03:06:24;8.57;;;5.70;;
12910;SDS011;6523;49.758;6.120;2024-03-17T03:08:50;5.57;;;5.00;;
12910;SDS011;6523;49.758;6.120;2024-03-17T03:11:16;6.67;;;5.30;;
12910;SDS011;6523;49.758;6.120;2024-03-17T03:13:42;5.70;;;5.10;;
12910;SDS011;6523;49.758;6.120;2024-03-17T03:16:12;5.47;;;4.67;;
12910;SDS011;6523;49.758;6.120;2024-03-17T03:18:43;6.47;;;5.53;;
12910;SDS011;6523;49.758;6.120;2024-03-17T03:21:09;6.23;;;4.73;;
12910;SDS011;6523;49.758;6.120;2024-03-17T03:23:36;8.17;;;5.70;;
12910;SDS011;6523;49.758;6.120;2024-03-17T03:26:02;5.97;;;5.03;;
12910;SDS011;6523;49.758;6.120;2024-03-17T03:28:31;5.83;;;4.70;;
12910;SDS011;6523;49.758;6.120;2024-03-17T03:30:58;6.13;;;5.20;;
12910;SDS011;6523;49.758;6.120;2024-03-17T03:33:24;7.23;;;4.63;;
12910;SDS011;6523;49.758;6.120;2024-03-17T03:35:50;7.60;;;4.73;;
12910;SDS011;6523;49.758;6.120;2024-03-17T03:38:16;8.37;;;5.43;;
12910;SDS011;6523;49.758;6.120;2024-03-17T03:40:43;6.50;;;5.33;;
12910;SDS011;6523;49.758;6.120;2024-03-17T03:43:09;6.23;;;5.20;;
12910;SDS011;6523;49.758;6.120;2024-03-17T03:45:36;4.67;;;4.10;;
12910;SDS011;6523;49.758;6.120;2024-03-17T03:48:02;5.43;;;4.30;;
12910;SDS011;6523;49.758;6.120;2024-03-17T03:50:28;4.43;;;4.03;;
12910;SDS011;6523;49.758;6.120;2024-03-17T03:52:55;5.13;;;4.40;;
12910;SDS011;6523;49.758;6.120;2024-03-17T03:55:21;6.80;;;4.43;;
12910;SDS011;6523;49.758;6.120;2024-03-17T03:57:46;5.50;;;4.37;;
12910;SDS011;6523;49.758;6.120;2024-03-17T04:00:17;5.47;;;4.60;;
12910;SDS011;6523;49.758;6.120;2024-03-17T04:02:46;6.37;;;5.00;;
12910;SDS011;6523;49.758;6.120;2024-03-17T04:05:17;7.27;;;5.10;;
12910;SDS011;6523;49.758;6.120;2024-03-17T04:07:46;9.30;;;5.30;;
12910;SDS011;6523;49.758;6.120;2024-03-17T04:10:13;6.13;;;5.43;;
12910;SDS011;6523;49.758;6.120;2024-03-17T04:12:40;9.23;;;6.50;;
12910;SDS011;6523;49.758;6.120;2024-03-17T04:15:07;6.53;;;5.50;;
12910;SDS011;6523;49.758;6.120;2024-03-17T04:17:35;6.53;;;5.37;;
12910;SDS011;6523;49.758;6.120;2024-03-17T04:20:02;6.30;;;5.13;;
12910;SDS011;6523;49.758;6.120;2024-03-17T04:22:30;8.27;;;5.73;;
12910;SDS011;6523;49.758;6.120;2024-03-17T04:24:56;6.50;;;5.17;;
12910;SDS011;6523;49.758;6.120;2024-03-17T04:27:22;7.33;;;5.40;;
12910;SDS011;6523;49.758;6.120;2024-03-17T04:29:54;6.03;;;5.43;;
12910;SDS011;6523;49.758;6.120;2024-03-17T04:32:22;5.70;;;4.67;;
12910;SDS011;6523;49.758;6.120;2024-03-17T04:34:48;6.03;;;5.40;;
12910;SDS011;6523;49.758;6.120;2024-03-17T04:37:13;29.30;;;16.40;;
12910;SDS011;6523;49.758;6.120;2024-03-17T04:39:40;13.97;;;9.27;;
12910;SDS011;6523;49.758;6.120;2024-03-17T04:42:08;12.50;;;8.20;;
12910;SDS011;6523;49.758;6.120;2024-03-17T04:44:34;12.73;;;8.20;;
12910;SDS011;6523;49.758;6.120;2024-03-17T04:47:00;11.50;;;8.73;;
12910;SDS011;6523;49.758;6.120;2024-03-17T04:49:27;9.80;;;6.97;;
12910;SDS011;6523;49.758;6.120;2024-03-17T04:51:52;8.93;;;7.03;;
12910;SDS011;6523;49.758;6.120;2024-03-17T04:54:18;10.70;;;6.93;;
12910;SDS011;6523;49.758;6.120;2024-03-17T04:56:44;9.77;;;6.27;;
12910;SDS011;6523;49.758;6.120;2024-03-17T04:59:10;9.53;;;6.90;;
12910;SDS011;6523;49.758;6.120;2024-03-17T05:01:35;8.13;;;6.27;;
12910;SDS011;6523;49.758;6.120;2024-03-17T05:04:04;5.33;;;4.67;;
12910;SDS011;6523;49.758;6.120;2024-03-17T05:06:30;9.27;;;5.10;;
12910;SDS011;6523;49.758;6.120;2024-03-17T05:08:56;6.67;;;5.10;;
12910;SDS011;6523;49.758;6.120;2024-03-17T05:11:21;6.70;;;5.37;;
12910;SDS011;6523;49.758;6.120;2024-03-17T05:13:48;9.77;;;6.80;;
12910;SDS011;6523;49.758;6.120;2024-03-17T05:16:15;9.07;;;6.10;;
12910;SDS011;6523;49.758;6.120;2024-03-17T05:18:41;7.47;;;6.13;;
12910;SDS011;6523;49.758;6.120;2024-03-17T05:21:06;7.53;;;6.27;;
12910;SDS011;6523;49.758;6.120;2024-03-17T05:23:36;8.83;;;5.83;;
12910;SDS011;6523;49.758;6.120;2024-03-17T05:26:02;6.00;;;5.30;;
12910;SDS011;6523;49.758;6.120;2024-03-17T05:28:31;5.77;;;5.13;;
12910;SDS011;6523;49.758;6.120;2024-03-17T05:30:57;7.80;;;5.77;;
12910;SDS011;6523;49.758;6.120;2024-03-17T05:33:24;8.43;;;5.73;;
12910;SDS011;6523;49.758;6.120;2024-03-17T05:35:54;7.87;;;6.00;;
12910;SDS011;6523;49.758;6.120;2024-03-17T05:38:21;8.43;;;6.00;;
12910;SDS011;6523;49.758;6.120;2024-03-17T05:43:31;8.77;;;5.73;;
12910;SDS011;6523;49.758;6.120;2024-03-17T05:45:58;8.60;;;5.63;;
12910;SDS011;6523;49.758;6.120;2024-03-17T05:48:26;7.90;;;6.07;;
12910;SDS011;6523;49.758;6.120;2024-03-17T05:50:55;9.40;;;6.13;;
12910;SDS011;6523;49.758;6.120;2024-03-17T05:53:21;9.70;;;6.10;;
12910;SDS011;6523;49.758;6.120;2024-03-17T05:55:49;7.40;;;5.50;;
12910;SDS011;6523;49.758;6.120;2024-03-17T05:58:15;8.93;;;6.13;;
12910;SDS011;6523;49.758;6.120;2024-03-17T06:00:41;8.80;;;6.23;;
12910;SDS011;6523;49.758;6.120;2024-03-17T06:03:07;9.07;;;6.13;;
12910;SDS011;6523;49.758;6.120;2024-03-17T06:05:37;9.67;;;6.20;;
12910;SDS011;6523;49.758;6.120;2024-03-17T06:08:06;7.87;;;5.60;;
12910;SDS011;6523;49.758;6.120;2024-03-17T06:10:34;13.00;;;7.03;;
12910;SDS011;6523;49.758;6.120;2024-03-17T06:13:01;9.63;;;6.07;;
12910;SDS011;6523;49.758;6.120;2024-03-17T06:15:27;9.67;;;6.03;;
12910;SDS011;6523;49.758;6.120;2024-03-17T06:17:53;8.10;;;5.70;;
12910;SDS011;6523;49.758;6.120;2024-03-17T06:20:20;10.73;;;6.37;;
12910;SDS011;6523;49.758;6.120;2024-03-17T06:22:46;8.63;;;6.10;;
12910;SDS011;6523;49.758;6.120;2024-03-17T06:25:12;9.47;;;6.37;;
12910;SDS011;6523;49.758;6.120;2024-03-17T06:27:38;12.87;;;6.97;;
12910;SDS011;6523;49.758;6.120;2024-03-17T06:30:04;10.93;;;6.73;;
12910;SDS011;6523;49.758;6.120;2024-03-17T06:32:32;10.20;;;6.47;;
12910;SDS011;6523;49.758;6.120;2024-03-17T06:35:01;9.73;;;6.33;;
12910;SDS011;6523;49.758;6.120;2024-03-17T06:37:27;10.20;;;6.60;;
12910;SDS011;6523;49.758;6.120;2024-03-17T06:39:53;10.07;;;6.87;;
12910;SDS011;6523;49.758;6.120;2024-03-17T06:42:18;12.67;;;6.50;;
12910;SDS011;6523;49.758;6.120;2024-03-17T06:44:44;10.37;;;6.97;;
12910;SDS011;6523;49.758;6.120;2024-03-17T06:47:10;9.20;;;6.17;;
12910;SDS011;6523;49.758;6.120;2024-03-17T06:49:35;17.27;;;7.37;;
12910;SDS011;6523;49.758;6.120;2024-03-17T06:52:01;25.13;;;8.30;;
12910;SDS011;6523;49.758;6.120;2024-03-17T06:54:27;36.07;;;8.60;;
12910;SDS011;6523;49.758;6.120;2024-03-17T06:56:53;25.17;;;8.00;;
12910;SDS011;6523;49.758;6.120;2024-03-17T06:59:19;23.30;;;7.33;;
12910;SDS011;6523;49.758;6.120;2024-03-17T07:01:45;16.30;;;6.90;;
12910;SDS011;6523;49.758;6.120;2024-03-17T07:04:12;9.97;;;7.27;;
12910;SDS011;6523;49.758;6.120;2024-03-17T07:06:38;10.43;;;7.20;;
12910;SDS011;6523;49.758;6.120;2024-03-17T07:09:03;13.80;;;9.23;;
12910;SDS011;6523;49.758;6.120;2024-03-17T07:11:29;15.30;;;9.60;;
12910;SDS011;6523;49.758;6.120;2024-03-17T07:13:55;8.83;;;6.90;;
12910;SDS011;6523;49.758;6.120;2024-03-17T07:16:20;12.50;;;7.97;;
12910;SDS011;6523;49.758;6.120;2024-03-17T07:18:47;40.53;;;10.60;;
12910;SDS011;6523;49.758;6.120;2024-03-17T07:21:12;11.50;;;8.00;;
12910;SDS011;6523;49.758;6.120;2024-03-17T07:23:38;10.80;;;8.17;;
12910;SDS011;6523;49.758;6.120;2024-03-17T07:26:04;12.43;;;8.17;;
12910;SDS011;6523;49.758;6.120;2024-03-17T07:28:30;11.53;;;8.13;;
12910;SDS011;6523;49.758;6.120;2024-03-17T07:30:57;10.90;;;7.90;;
12910;SDS011;6523;49.758;6.120;2024-03-17T07:33:25;12.57;;;8.23;;
12910;SDS011;6523;49.758;6.120;2024-03-17T07:35:55;12.53;;;7.97;;
12910;SDS011;6523;49.758;6.120;2024-03-17T07:38:25;11.53;;;8.67;;
12910;SDS011;6523;49.758;6.120;2024-03-17T07:43:26;12.70;;;9.37;;
12910;SDS011;6523;49.758;6.120;2024-03-17T07:46:02;14.10;;;9.47;;
12910;SDS011;6523;49.758;6.120;2024-03-17T07:48:31;14.43;;;9.40;;
12910;SDS011;6523;49.758;6.120;2024-03-17T07:50:58;13.27;;;9.50;;
12910;SDS011;6523;49.758;6.120;2024-03-17T07:53:35;14.03;;;9.40;;
12910;SDS011;6523;49.758;6.120;2024-03-17T07:56:05;14.10;;;9.23;;
12910;SDS011;6523;49.758;6.120;2024-03-17T07:58:35;13.00;;;9.20;;
12910;SDS011;6523;49.758;6.120;2024-03-17T08:01:03;10.03;;;8.00;;
12910;SDS011;6523;49.758;6.120;2024-03-17T08:03:31;11.23;;;8.40;;
12910;SDS011;6523;49.758;6.120;2024-03-17T08:06:04;10.60;;;7.77;;
12910;SDS011;6523;49.758;6.120;2024-03-17T08:08:32;10.60;;;7.83;;
12910;SDS011;6523;49.758;6.120;2024-03-17T08:10:58;11.53;;;8.53;;
12910;SDS011;6523;49.758;6.120;2024-03-17T08:13:24;12.23;;;8.77;;
12910;SDS011;6523;49.758;6.120;2024-03-17T08:15:57;11.33;;;8.83;;
12910;SDS011;6523;49.758;6.120;2024-03-17T08:18:24;9.23;;;7.80;;
12910;SDS011;6523;49.758;6.120;2024-03-17T08:20:50;10.50;;;8.53;;
12910;SDS011;6523;49.758;6.120;2024-03-17T08:23:16;9.67;;;7.67;;
12910;SDS011;6523;49.758;6.120;2024-03-17T08:25:41;9.53;;;8.13;;
12910;SDS011;6523;49.758;6.120;2024-03-17T08:28:07;10.03;;;7.80;;
12910;SDS011;6523;49.758;6.120;2024-03-17T08:30:33;10.60;;;7.80;;
12910;SDS011;6523;49.758;6.120;2024-03-17T08:32:59;9.27;;;7.90;;
12910;SDS011;6523;49.758;6.120;2024-03-17T08:35:25;9.47;;;8.20;;
12910;SDS011;6523;49.758;6.120;2024-03-17T08:37:51;9.73;;;7.67;;
12910;SDS011;6523;49.758;6.120;2024-03-17T08:40:19;8.70;;;7.67;;
12910;SDS011;6523;49.758;6.120;2024-03-17T08:42:45;16.03;;;10.07;;
12910;SDS011;6523;49.758;6.120;2024-03-17T08:45:11;9.77;;;7.97;;
12910;SDS011;6523;49.758;6.120;2024-03-17T08:47:37;11.57;;;8.50;;
12910;SDS011;6523;49.758;6.120;2024-03-17T08:50:03;10.50;;;7.63;;
12910;SDS011;6523;49.758;6.120;2024-03-17T08:52:30;10.30;;;8.13;;
12910;SDS011;6523;49.758;6.120;2024-03-17T08:54:58;10.83;;;8.23;;
12910;SDS011;6523;49.758;6.120;2024-03-17T08:57:24;13.40;;;8.43;;
12910;SDS011;6523;49.758;6.120;2024-03-17T08:59:50;12.20;;;8.13;;
12910;SDS011;6523;49.758;6.120;2024-03-17T09:02:19;13.10;;;9.30;;
12910;SDS011;6523;49.758;6.120;2024-03-17T09:04:46;12.73;;;8.77;;
12910;SDS011;6523;49.758;6.120;2024-03-17T09:07:12;11.03;;;9.23;;
12910;SDS011;6523;49.758;6.120;2024-03-17T09:09:40;14.10;;;9.50;;
12910;SDS011;6523;49.758;6.120;2024-03-17T09:12:11;10.57;;;8.27;;
12910;SDS011;6523;49.758;6.120;2024-03-17T09:14:37;10.43;;;7.80;;
12910;SDS011;6523;49.758;6.120;2024-03-17T09:17:03;12.93;;;8.73;;
12910;SDS011;6523;49.758;6.120;2024-03-17T09:19:28;13.17;;;9.10;;
12910;SDS011;6523;49.758;6.120;2024-03-17T09:21:54;11.53;;;8.37;;
12910;SDS011;6523;49.758;6.120;2024-03-17T09:24:20;15.20;;;9.93;;
12910;SDS011;6523;49.758;6.120;2024-03-17T09:26:46;14.73;;;10.47;;
12910;SDS011;6523;49.758;6.120;2024-03-17T09:29:12;11.27;;;9.40;;
12910;SDS011;6523;49.758;6.120;2024-03-17T09:31:40;14.00;;;11.00;;
12910;SDS011;6523;49.758;6.120;2024-03-17T09:34:06;12.80;;;8.93;;
12910;SDS011;6523;49.758;6.120;2024-03-17T09:36:32;16.37;;;10.80;;
12910;SDS011;6523;49.758;6.120;2024-03-17T09:38:58;18.00;;;10.43;;
12910;SDS011;6523;49.758;6.120;2024-03-17T09:41:25;13.27;;;10.00;;
12910;SDS011;6523;49.758;6.120;2024-03-17T09:43:55;10.13;;;8.93;;
12910;SDS011;6523;49.758;6.120;2024-03-17T09:46:22;13.63;;;10.00;;
12910;SDS011;6523;49.758;6.120;2024-03-17T09:48:49;12.43;;;9.10;;
12910;SDS011;6523;49.758;6.120;2024-03-17T09:51:19;13.30;;;8.90;;
12910;SDS011;6523;49.758;6.120;2024-03-17T09:53:46;12.13;;;8.80;;
12910;SDS011;6523;49.758;6.120;2024-03-17T09:56:14;11.13;;;8.87;;
12910;SDS011;6523;49.758;6.120;2024-03-17T09:58:43;13.47;;;9.20;;
12910;SDS011;6523;49.758;6.120;2024-03-17T10:01:09;9.97;;;8.63;;
12910;SDS011;6523;49.758;6.120;2024-03-17T10:03:42;11.90;;;9.00;;
12910;SDS011;6523;49.758;6.120;2024-03-17T10:06:09;11.70;;;7.73;;
12910;SDS011;6523;49.758;6.120;2024-03-17T10:08:43;11.57;;;8.63;;
12910;SDS011;6523;49.758;6.120;2024-03-17T10:11:16;11.70;;;8.60;;
12910;SDS011;6523;49.758;6.120;2024-03-17T10:13:44;13.53;;;8.70;;
12910;SDS011;6523;49.758;6.120;2024-03-17T10:16:44;12.40;;;8.67;;
12910;SDS011;6523;49.758;6.120;2024-03-17T10:21:46;12.13;;;8.07;;
12910;SDS011;6523;49.758;6.120;2024-03-17T10:34:29;13.37;;;8.20;;
12910;SDS011;6523;49.758;6.120;2024-03-17T10:39:51;14.97;;;9.17;;
12910;SDS011;6523;49.758;6.120;2024-03-17T10:42:27;14.20;;;8.23;;
12910;SDS011;6523;49.758;6.120;2024-03-17T10:44:54;12.57;;;8.10;;
12910;SDS011;6523;49.758;6.120;2024-03-17T10:47:24;10.83;;;8.13;;
12910;SDS011;6523;49.758;6.120;2024-03-17T10:49:51;10.47;;;7.60;;
12910;SDS011;6523;49.758;6.120;2024-03-17T10:52:19;9.30;;;7.47;;
12910;SDS011;6523;49.758;6.120;2024-03-17T10:54:46;10.33;;;7.80;;
12910;SDS011;6523;49.758;6.120;2024-03-17T10:59:57;10.97;;;7.93;;
12910;SDS011;6523;49.758;6.120;2024-03-17T11:02:28;9.07;;;7.13;;
12910;SDS011;6523;49.758;6.120;2024-03-17T11:04:58;8.23;;;7.00;;
12910;SDS011;6523;49.758;6.120;2024-03-17T11:07:25;9.77;;;7.70;;
12910;SDS011;6523;49.758;6.120;2024-03-17T11:09:52;8.67;;;6.20;;
12910;SDS011;6523;49.758;6.120;2024-03-17T11:17:46;7.70;;;5.93;;
12910;SDS011;6523;49.758;6.120;2024-03-17T11:20:13;9.23;;;6.30;;
12910;SDS011;6523;49.758;6.120;2024-03-17T11:22:43;11.57;;;6.33;;
12910;SDS011;6523;49.758;6.120;2024-03-17T11:27:56;8.67;;;6.33;;
12910;SDS011;6523;49.758;6.120;2024-03-17T11:39:11;8.10;;;5.80;;
12910;SDS011;6523;49.758;6.120;2024-03-17T11:41:46;9.47;;;6.13;;
12910;SDS011;6523;49.758;6.120;2024-03-17T11:46:54;7.80;;;5.67;;
12910;SDS011;6523;49.758;6.120;2024-03-17T11:49:25;8.97;;;5.93;;
12910;SDS011;6523;49.758;6.120;2024-03-17T11:51:53;6.50;;;5.00;;
12910;SDS011;6523;49.758;6.120;2024-03-17T11:54:22;7.60;;;5.80;;
12910;SDS011;6523;49.758;6.120;2024-03-17T11:56:50;7.33;;;6.00;;
12910;SDS011;6523;49.758;6.120;2024-03-17T11:59:20;7.07;;;5.23;;
12910;SDS011;6523;49.758;6.120;2024-03-17T12:01:46;9.07;;;5.30;;
12910;SDS011;6523;49.758;6.120;2024-03-17T12:04:22;7.43;;;5.30;;
12910;SDS011;6523;49.758;6.120;2024-03-17T12:06:54;7.43;;;4.93;;
12910;SDS011;6523;49.758;6.120;2024-03-17T12:11:51;7.73;;;5.63;;
12910;SDS011;6523;49.758;6.120;2024-03-17T12:14:30;7.97;;;5.50;;
12910;SDS011;6523;49.758;6.120;2024-03-17T12:17:00;7.33;;;5.40;;
12910;SDS011;6523;49.758;6.120;2024-03-17T12:19:28;9.67;;;6.77;;
12910;SDS011;6523;49.758;6.120;2024-03-17T12:21:54;9.23;;;6.50;;
12910;SDS011;6523;49.758;6.120;2024-03-17T12:24:21;9.60;;;6.70;;
12910;SDS011;6523;49.758;6.120;2024-03-17T12:26:48;8.20;;;5.77;;
12910;SDS011;6523;49.758;6.120;2024-03-17T12:32:01;7.60;;;5.50;;
12910;SDS011;6523;49.758;6.120;2024-03-17T12:34:30;9.17;;;5.87;;
12910;SDS011;6523;49.758;6.120;2024-03-17T12:36:58;7.90;;;5.03;;
12910;SDS011;6523;49.758;6.120;2024-03-17T12:42:04;6.50;;;4.30;;
12910;SDS011;6523;49.758;6.120;2024-03-17T12:44:30;8.27;;;4.87;;
12910;SDS011;6523;49.758;6.120;2024-03-17T12:46:57;6.07;;;3.97;;
12910;SDS011;6523;49.758;6.120;2024-03-17T12:49:31;5.43;;;3.57;;
12910;SDS011;6523;49.758;6.120;2024-03-17T12:51:59;6.27;;;3.90;;
12910;SDS011;6523;49.758;6.120;2024-03-17T12:54:26;4.80;;;3.57;;
12910;SDS011;6523;49.758;6.120;2024-03-17T12:57:03;6.77;;;3.70;;
12910;SDS011;6523;49.758;6.120;2024-03-17T12:59:48;5.73;;;3.57;;
12910;SDS011;6523;49.758;6.120;2024-03-17T13:02:33;4.30;;;3.53;;
12910;SDS011;6523;49.758;6.120;2024-03-17T13:05:06;4.43;;;3.10;;
12910;SDS011;6523;49.758;6.120;2024-03-17T13:07:32;5.13;;;2.90;;
12910;SDS011;6523;49.758;6.120;2024-03-17T13:09:58;3.80;;;3.00;;
12910;SDS011;6523;49.758;6.120;2024-03-17T13:12:23;2.80;;;2.50;;
12910;SDS011;6523;49.758;6.120;2024-03-17T13:14:49;3.10;;;2.67;;
12910;SDS011;6523;49.758;6.120;2024-03-17T13:17:15;3.50;;;2.63;;
12910;SDS011;6523;49.758;6.120;2024-03-17T13:19:44;3.07;;;2.73;;
12910;SDS011;6523;49.758;6.120;2024-03-17T13:22:11;4.10;;;2.07;;
12910;SDS011;6523;49.758;6.120;2024-03-17T13:24:37;3.80;;;2.43;;
12910;SDS011;6523;49.758;6.120;2024-03-17T13:27:02;3.97;;;2.50;;
12910;SDS011;6523;49.758;6.120;2024-03-17T13:29:31;3.23;;;2.53;;
12910;SDS011;6523;49.758;6.120;2024-03-17T13:32:03;3.67;;;2.70;;
12910;SDS011;6523;49.758;6.120;2024-03-17T13:34:29;3.27;;;2.40;;
12910;SDS011;6523;49.758;6.120;2024-03-17T13:36:55;3.57;;;2.30;;
12910;SDS011;6523;49.758;6.120;2024-03-17T13:39:21;2.67;;;2.40;;
12910;SDS011;6523;49.758;6.120;2024-03-17T13:41:47;4.40;;;2.77;;
12910;SDS011;6523;49.758;6.120;2024-03-17T13:44:14;3.73;;;2.60;;
12910;SDS011;6523;49.758;6.120;2024-03-17T13:46:40;5.40;;;3.93;;
12910;SDS011;6523;49.758;6.120;2024-03-17T13:49:09;3.37;;;2.70;;
12910;SDS011;6523;49.758;6.120;2024-03-17T13:51:35;4.13;;;3.20;;
12910;SDS011;6523;49.758;6.120;2024-03-17T13:54:01;3.93;;;3.37;;
12910;SDS011;6523;49.758;6.120;2024-03-17T13:56:27;3.13;;;2.73;;
12910;SDS011;6523;49.758;6.120;2024-03-17T13:58:53;5.50;;;2.90;;
12910;SDS011;6523;49.758;6.120;2024-03-17T14:01:19;3.67;;;3.10;;
12910;SDS011;6523;49.758;6.120;2024-03-17T14:03:45;5.23;;;3.20;;
12910;SDS011;6523;49.758;6.120;2024-03-17T14:06:11;4.40;;;3.30;;
12910;SDS011;6523;49.758;6.120;2024-03-17T14:08:37;6.33;;;3.53;;
12910;SDS011;6523;49.758;6.120;2024-03-17T14:11:03;3.73;;;3.27;;
12910;SDS011;6523;49.758;6.120;2024-03-17T14:13:31;5.00;;;3.90;;
12910;SDS011;6523;49.758;6.120;2024-03-17T14:15:57;4.07;;;3.20;;
12910;SDS011;6523;49.758;6.120;2024-03-17T14:18:23;5.53;;;3.47;;
12910;SDS011;6523;49.758;6.120;2024-03-17T14:20:48;4.07;;;3.17;;
12910;SDS011;6523;49.758;6.120;2024-03-17T14:23:15;5.73;;;3.47;;
12910;SDS011;6523;49.758;6.120;2024-03-17T14:25:41;3.80;;;3.47;;
12910;SDS011;6523;49.758;6.120;2024-03-17T14:28:06;5.13;;;4.00;;
12910;SDS011;6523;49.758;6.120;2024-03-17T14:30:32;4.13;;;3.67;;
12910;SDS011;6523;49.758;6.120;2024-03-17T14:32:58;5.63;;;3.30;;
12910;SDS011;6523;49.758;6.120;2024-03-17T14:35:24;5.13;;;3.40;;
12910;SDS011;6523;49.758;6.120;2024-03-17T14:37:52;5.23;;;3.80;;
12910;SDS011;6523;49.758;6.120;2024-03-17T14:40:18;5.67;;;3.97;;
12910;SDS011;6523;49.758;6.120;2024-03-17T14:42:49;6.03;;;3.70;;
12910;SDS011;6523;49.758;6.120;2024-03-17T14:45:18;5.20;;;3.97;;
12910;SDS011;6523;49.758;6.120;2024-03-17T14:47:44;4.60;;;4.03;;
12910;SDS011;6523;49.758;6.120;2024-03-17T14:50:11;5.97;;;3.90;;
12910;SDS011;6523;49.758;6.120;2024-03-17T14:52:37;5.07;;;3.83;;
12910;SDS011;6523;49.758;6.120;2024-03-17T14:55:03;4.67;;;3.90;;
12910;SDS011;6523;49.758;6.120;2024-03-17T14:57:30;4.30;;;3.77;;
12910;SDS011;6523;49.758;6.120;2024-03-17T14:59:56;4.30;;;3.73;;
12910;SDS011;6523;49.758;6.120;2024-03-17T15:02:21;5.17;;;4.00;;
12910;SDS011;6523;49.758;6.120;2024-03-17T15:04:49;6.33;;;4.03;;
12910;SDS011;6523;49.758;6.120;2024-03-17T15:07:16;6.30;;;4.47;;
12910;SDS011;6523;49.758;6.120;2024-03-17T15:09:42;5.13;;;3.90;;
12910;SDS011;6523;49.758;6.120;2024-03-17T15:12:08;4.50;;;3.60;;
12910;SDS011;6523;49.758;6.120;2024-03-17T15:14:33;4.20;;;3.80;;
12910;SDS011;6523;49.758;6.120;2024-03-17T15:16:59;4.33;;;3.70;;
12910;SDS011;6523;49.758;6.120;2024-03-17T15:19:25;4.97;;;3.93;;
12910;SDS011;6523;49.758;6.120;2024-03-17T15:21:51;5.70;;;3.63;;
12910;SDS011;6523;49.758;6.120;2024-03-17T15:24:17;4.43;;;3.33;;
12910;SDS011;6523;49.758;6.120;2024-03-17T15:26:43;4.50;;;3.47;;
12910;SDS011;6523;49.758;6.120;2024-03-17T15:29:09;3.33;;;3.03;;
12910;SDS011;6523;49.758;6.120;2024-03-17T15:31:37;4.63;;;3.27;;
12910;SDS011;6523;49.758;6.120;2024-03-17T15:34:03;3.30;;;3.00;;
12910;SDS011;6523;49.758;6.120;2024-03-17T15:36:29;4.00;;;3.20;;
12910;SDS011;6523;49.758;6.120;2024-03-17T15:38:55;4.37;;;3.10;;
12910;SDS011;6523;49.758;6.120;2024-03-17T15:41:21;3.83;;;3.10;;
12910;SDS011;6523;49.758;6.120;2024-03-17T15:43:46;3.27;;;2.90;;
12910;SDS011;6523;49.758;6.120;2024-03-17T15:46:16;4.37;;;3.30;;
12910;SDS011;6523;49.758;6.120;2024-03-17T15:48:47;3.67;;;2.80;;
12910;SDS011;6523;49.758;6.120;2024-03-17T15:51:13;4.97;;;3.20;;